sensor_id;sensor_type;location;lat;lon;timestamp;P1;durP1;ratioP1;P2;durP2;ratioP2
22677;SDS011;26259;50.214;18.620;2022-07-24T00:00:14;32.13;;;28.83;;
22677;SDS011;26259;50.214;18.620;2022-07-24T00:02:41;32.67;;;29.07;;
22677;SDS011;26259;50.214;18.620;2022-07-24T00:05:07;33.77;;;30.23;;
22677;SDS011;26259;50.214;18.620;2022-07-24T00:07:33;34.83;;;31.23;;
22677;SDS011;26259;50.214;18.620;2022-07-24T00:10:05;35.57;;;31.77;;
22677;SDS011;26259;50.214;18.620;2022-07-24T00:12:31;40.53;;;33.50;;
22677;SDS011;26259;50.214;18.620;2022-07-24T00:14:57;36.93;;;32.93;;
22677;SDS011;26259;50.214;18.620;2022-07-24T00:17:23;37.37;;;33.40;;
22677;SDS011;26259;50.214;18.620;2022-07-24T00:19:48;35.40;;;31.80;;
22677;SDS011;26259;50.214;18.620;2022-07-24T00:22:14;35.67;;;32.07;;
22677;SDS011;26259;50.214;18.620;2022-07-24T00:24:40;35.43;;;31.73;;
22677;SDS011;26259;50.214;18.620;2022-07-24T00:27:05;34.37;;;30.80;;
22677;SDS011;26259;50.214;18.620;2022-07-24T00:29:31;39.87;;;33.00;;
22677;SDS011;26259;50.214;18.620;2022-07-24T00:31:57;38.63;;;34.67;;
22677;SDS011;26259;50.214;18.620;2022-07-24T00:34:22;40.83;;;35.40;;
22677;SDS011;26259;50.214;18.620;2022-07-24T00:36:48;44.37;;;38.40;;
22677;SDS011;26259;50.214;18.620;2022-07-24T00:39:14;45.27;;;38.57;;
22677;SDS011;26259;50.214;18.620;2022-07-24T00:41:39;45.53;;;39.33;;
22677;SDS011;26259;50.214;18.620;2022-07-24T00:44:09;44.37;;;39.47;;
22677;SDS011;26259;50.214;18.620;2022-07-24T00:46:37;44.23;;;38.40;;
22677;SDS011;26259;50.214;18.620;2022-07-24T00:49:05;42.37;;;37.77;;
22677;SDS011;26259;50.214;18.620;2022-07-24T00:51:33;42.23;;;37.90;;
22677;SDS011;26259;50.214;18.620;2022-07-24T00:53:59;45.30;;;39.60;;
22677;SDS011;26259;50.214;18.620;2022-07-24T00:56:25;46.87;;;37.10;;
22677;SDS011;26259;50.214;18.620;2022-07-24T00:58:50;43.67;;;38.97;;
22677;SDS011;26259;50.214;18.620;2022-07-24T01:01:16;44.87;;;40.03;;
22677;SDS011;26259;50.214;18.620;2022-07-24T01:03:43;46.97;;;41.70;;
22677;SDS011;26259;50.214;18.620;2022-07-24T01:06:09;43.40;;;38.80;;
22677;SDS011;26259;50.214;18.620;2022-07-24T01:08:35;44.63;;;39.83;;
22677;SDS011;26259;50.214;18.620;2022-07-24T01:11:02;45.97;;;41.10;;
22677;SDS011;26259;50.214;18.620;2022-07-24T01:13:27;49.33;;;40.73;;
22677;SDS011;26259;50.214;18.620;2022-07-24T01:15:54;49.80;;;41.23;;
22677;SDS011;26259;50.214;18.620;2022-07-24T01:18:20;45.17;;;40.43;;
22677;SDS011;26259;50.214;18.620;2022-07-24T01:20:46;45.13;;;39.67;;
22677;SDS011;26259;50.214;18.620;2022-07-24T01:23:12;40.13;;;35.87;;
22677;SDS011;26259;50.214;18.620;2022-07-24T01:25:38;39.00;;;34.67;;
22677;SDS011;26259;50.214;18.620;2022-07-24T01:28:05;37.70;;;33.53;;
22677;SDS011;26259;50.214;18.620;2022-07-24T01:30:31;35.67;;;32.13;;
22677;SDS011;26259;50.214;18.620;2022-07-24T01:32:57;34.73;;;29.73;;
22677;SDS011;26259;50.214;18.620;2022-07-24T01:35:23;32.00;;;28.70;;
22677;SDS011;26259;50.214;18.620;2022-07-24T01:37:50;32.30;;;28.93;;
22677;SDS011;26259;50.214;18.620;2022-07-24T01:40:16;29.83;;;26.83;;
22677;SDS011;26259;50.214;18.620;2022-07-24T01:42:42;30.07;;;26.87;;
22677;SDS011;26259;50.214;18.620;2022-07-24T01:45:08;28.53;;;25.57;;
22677;SDS011;26259;50.214;18.620;2022-07-24T01:47:34;27.53;;;24.60;;
22677;SDS011;26259;50.214;18.620;2022-07-24T01:49:59;27.37;;;24.53;;
22677;SDS011;26259;50.214;18.620;2022-07-24T01:52:25;34.17;;;24.93;;
22677;SDS011;26259;50.214;18.620;2022-07-24T01:54:51;26.67;;;24.00;;
22677;SDS011;26259;50.214;18.620;2022-07-24T01:57:17;26.70;;;22.90;;
22677;SDS011;26259;50.214;18.620;2022-07-24T01:59:42;26.10;;;23.23;;
22677;SDS011;26259;50.214;18.620;2022-07-24T02:02:08;25.37;;;22.73;;
22677;SDS011;26259;50.214;18.620;2022-07-24T02:04:34;23.93;;;21.63;;
22677;SDS011;26259;50.214;18.620;2022-07-24T02:06:59;26.57;;;23.53;;
22677;SDS011;26259;50.214;18.620;2022-07-24T02:09:25;27.07;;;23.37;;
22677;SDS011;26259;50.214;18.620;2022-07-24T02:11:51;25.80;;;23.13;;
22677;SDS011;26259;50.214;18.620;2022-07-24T02:14:17;27.60;;;22.80;;
22677;SDS011;26259;50.214;18.620;2022-07-24T02:16:43;25.13;;;22.53;;
22677;SDS011;26259;50.214;18.620;2022-07-24T02:19:08;26.20;;;22.57;;
22677;SDS011;26259;50.214;18.620;2022-07-24T02:21:34;25.57;;;22.73;;
22677;SDS011;26259;50.214;18.620;2022-07-24T02:24:00;27.07;;;24.27;;
22677;SDS011;26259;50.214;18.620;2022-07-24T02:26:25;28.20;;;24.70;;
22677;SDS011;26259;50.214;18.620;2022-07-24T02:28:51;27.57;;;24.83;;
22677;SDS011;26259;50.214;18.620;2022-07-24T02:31:16;27.43;;;24.50;;
22677;SDS011;26259;50.214;18.620;2022-07-24T02:33:42;27.70;;;24.53;;
22677;SDS011;26259;50.214;18.620;2022-07-24T02:36:07;27.07;;;23.57;;
22677;SDS011;26259;50.214;18.620;2022-07-24T02:38:33;27.47;;;24.70;;
22677;SDS011;26259;50.214;18.620;2022-07-24T02:40:59;36.40;;;26.03;;
22677;SDS011;26259;50.214;18.620;2022-07-24T02:43:24;27.57;;;24.77;;
22677;SDS011;26259;50.214;18.620;2022-07-24T02:45:50;27.10;;;24.50;;
22677;SDS011;26259;50.214;18.620;2022-07-24T02:48:16;26.63;;;23.87;;
22677;SDS011;26259;50.214;18.620;2022-07-24T02:50:41;31.00;;;27.13;;
22677;SDS011;26259;50.214;18.620;2022-07-24T02:53:07;29.20;;;26.30;;
22677;SDS011;26259;50.214;18.620;2022-07-24T02:55:32;36.13;;;28.17;;
22677;SDS011;26259;50.214;18.620;2022-07-24T02:57:58;31.50;;;28.10;;
22677;SDS011;26259;50.214;18.620;2022-07-24T03:00:23;39.20;;;28.53;;
22677;SDS011;26259;50.214;18.620;2022-07-24T03:02:49;30.77;;;27.53;;
22677;SDS011;26259;50.214;18.620;2022-07-24T03:05:15;35.10;;;27.43;;
22677;SDS011;26259;50.214;18.620;2022-07-24T03:07:40;32.77;;;26.27;;
22677;SDS011;26259;50.214;18.620;2022-07-24T03:10:07;30.07;;;26.87;;
22677;SDS011;26259;50.214;18.620;2022-07-24T03:12:34;30.53;;;26.57;;
22677;SDS011;26259;50.214;18.620;2022-07-24T03:15:00;28.13;;;24.67;;
22677;SDS011;26259;50.214;18.620;2022-07-24T03:17:26;30.93;;;25.23;;
22677;SDS011;26259;50.214;18.620;2022-07-24T03:19:51;28.27;;;24.60;;
22677;SDS011;26259;50.214;18.620;2022-07-24T03:22:17;33.60;;;25.60;;
22677;SDS011;26259;50.214;18.620;2022-07-24T03:24:43;31.30;;;25.03;;
22677;SDS011;26259;50.214;18.620;2022-07-24T03:27:08;28.00;;;24.67;;
22677;SDS011;26259;50.214;18.620;2022-07-24T03:29:34;28.13;;;24.50;;
22677;SDS011;26259;50.214;18.620;2022-07-24T03:32:00;25.57;;;22.80;;
22677;SDS011;26259;50.214;18.620;2022-07-24T03:34:25;28.67;;;22.97;;
22677;SDS011;26259;50.214;18.620;2022-07-24T03:36:51;24.37;;;21.87;;
22677;SDS011;26259;50.214;18.620;2022-07-24T03:39:17;23.33;;;20.90;;
22677;SDS011;26259;50.214;18.620;2022-07-24T03:41:42;23.67;;;20.60;;
22677;SDS011;26259;50.214;18.620;2022-07-24T03:44:08;24.43;;;21.80;;
22677;SDS011;26259;50.214;18.620;2022-07-24T03:46:34;23.47;;;21.07;;
22677;SDS011;26259;50.214;18.620;2022-07-24T03:49:00;22.90;;;20.17;;
22677;SDS011;26259;50.214;18.620;2022-07-24T03:51:25;23.97;;;19.93;;
22677;SDS011;26259;50.214;18.620;2022-07-24T03:53:51;22.10;;;19.70;;
22677;SDS011;26259;50.214;18.620;2022-07-24T03:56:16;22.60;;;19.37;;
22677;SDS011;26259;50.214;18.620;2022-07-24T03:58:42;22.03;;;19.67;;
22677;SDS011;26259;50.214;18.620;2022-07-24T04:01:08;22.03;;;19.60;;
22677;SDS011;26259;50.214;18.620;2022-07-24T04:03:34;21.30;;;18.53;;
22677;SDS011;26259;50.214;18.620;2022-07-24T04:06:03;21.10;;;18.27;;
22677;SDS011;26259;50.214;18.620;2022-07-24T04:08:30;24.40;;;19.07;;
22677;SDS011;26259;50.214;18.620;2022-07-24T04:10:57;20.40;;;18.30;;
22677;SDS011;26259;50.214;18.620;2022-07-24T04:13:23;20.43;;;18.20;;
22677;SDS011;26259;50.214;18.620;2022-07-24T04:15:50;24.93;;;18.53;;
22677;SDS011;26259;50.214;18.620;2022-07-24T04:18:15;19.67;;;17.60;;
22677;SDS011;26259;50.214;18.620;2022-07-24T04:20:41;17.93;;;16.27;;
22677;SDS011;26259;50.214;18.620;2022-07-24T04:23:07;15.73;;;14.00;;
22677;SDS011;26259;50.214;18.620;2022-07-24T04:25:32;17.57;;;13.03;;
22677;SDS011;26259;50.214;18.620;2022-07-24T04:27:59;11.03;;;10.03;;
22677;SDS011;26259;50.214;18.620;2022-07-24T04:30:28;10.73;;;9.63;;
22677;SDS011;26259;50.214;18.620;2022-07-24T04:32:55;11.87;;;9.07;;
22677;SDS011;26259;50.214;18.620;2022-07-24T04:35:21;12.47;;;9.23;;
22677;SDS011;26259;50.214;18.620;2022-07-24T04:37:47;10.30;;;8.77;;
22677;SDS011;26259;50.214;18.620;2022-07-24T04:40:13;10.70;;;8.53;;
22677;SDS011;26259;50.214;18.620;2022-07-24T04:42:39;9.20;;;8.27;;
22677;SDS011;26259;50.214;18.620;2022-07-24T04:45:06;8.07;;;6.70;;
22677;SDS011;26259;50.214;18.620;2022-07-24T04:47:33;8.60;;;7.80;;
22677;SDS011;26259;50.214;18.620;2022-07-24T04:50:00;7.78;;;7.05;;
22677;SDS011;26259;50.214;18.620;2022-07-24T04:52:27;9.77;;;7.05;;
22677;SDS011;26259;50.214;18.620;2022-07-24T04:54:53;10.80;;;7.50;;
22677;SDS011;26259;50.214;18.620;2022-07-24T04:57:18;12.20;;;7.60;;
22677;SDS011;26259;50.214;18.620;2022-07-24T04:59:44;7.32;;;6.63;;
22677;SDS011;26259;50.214;18.620;2022-07-24T05:02:10;9.77;;;8.15;;
22677;SDS011;26259;50.214;18.620;2022-07-24T05:04:35;10.07;;;8.48;;
22677;SDS011;26259;50.214;18.620;2022-07-24T05:07:01;11.38;;;8.32;;
22677;SDS011;26259;50.214;18.620;2022-07-24T05:09:28;12.75;;;9.30;;
22677;SDS011;26259;50.214;18.620;2022-07-24T05:11:53;9.97;;;9.03;;
22677;SDS011;26259;50.214;18.620;2022-07-24T05:14:19;12.37;;;9.63;;
22677;SDS011;26259;50.214;18.620;2022-07-24T05:16:45;10.83;;;9.17;;
22677;SDS011;26259;50.214;18.620;2022-07-24T05:19:10;10.10;;;9.20;;
22677;SDS011;26259;50.214;18.620;2022-07-24T05:21:36;10.73;;;8.97;;
22677;SDS011;26259;50.214;18.620;2022-07-24T05:24:01;9.67;;;8.77;;
22677;SDS011;26259;50.214;18.620;2022-07-24T05:26:30;10.53;;;8.87;;
22677;SDS011;26259;50.214;18.620;2022-07-24T05:28:59;10.20;;;9.30;;
22677;SDS011;26259;50.214;18.620;2022-07-24T05:31:26;11.37;;;10.20;;
22677;SDS011;26259;50.214;18.620;2022-07-24T05:33:52;10.70;;;9.60;;
22677;SDS011;26259;50.214;18.620;2022-07-24T05:36:18;9.90;;;9.00;;
22677;SDS011;26259;50.214;18.620;2022-07-24T05:38:44;11.90;;;9.47;;
22677;SDS011;26259;50.214;18.620;2022-07-24T05:41:10;11.73;;;9.50;;
22677;SDS011;26259;50.214;18.620;2022-07-24T05:43:36;11.37;;;8.80;;
22677;SDS011;26259;50.214;18.620;2022-07-24T05:46:02;11.80;;;9.30;;
22677;SDS011;26259;50.214;18.620;2022-07-24T05:48:28;10.37;;;8.80;;
22677;SDS011;26259;50.214;18.620;2022-07-24T05:50:54;13.13;;;9.37;;
22677;SDS011;26259;50.214;18.620;2022-07-24T05:53:20;14.87;;;9.23;;
22677;SDS011;26259;50.214;18.620;2022-07-24T05:55:45;8.80;;;7.93;;
22677;SDS011;26259;50.214;18.620;2022-07-24T05:58:11;12.27;;;8.43;;
22677;SDS011;26259;50.214;18.620;2022-07-24T06:00:37;10.30;;;9.30;;
22677;SDS011;26259;50.214;18.620;2022-07-24T06:03:02;12.77;;;8.73;;
22677;SDS011;26259;50.214;18.620;2022-07-24T06:05:28;16.03;;;9.37;;
22677;SDS011;26259;50.214;18.620;2022-07-24T06:07:53;11.27;;;8.43;;
22677;SDS011;26259;50.214;18.620;2022-07-24T06:10:19;10.13;;;7.73;;
22677;SDS011;26259;50.214;18.620;2022-07-24T06:12:45;10.30;;;8.40;;
22677;SDS011;26259;50.214;18.620;2022-07-24T06:15:11;8.17;;;7.37;;
22677;SDS011;26259;50.214;18.620;2022-07-24T06:17:37;8.97;;;8.17;;
22677;SDS011;26259;50.214;18.620;2022-07-24T06:20:04;8.40;;;7.13;;
22677;SDS011;26259;50.214;18.620;2022-07-24T06:22:30;8.53;;;6.60;;
22677;SDS011;26259;50.214;18.620;2022-07-24T06:24:56;8.50;;;7.20;;
22677;SDS011;26259;50.214;18.620;2022-07-24T06:27:22;8.47;;;7.67;;
22677;SDS011;26259;50.214;18.620;2022-07-24T06:29:47;9.57;;;7.10;;
22677;SDS011;26259;50.214;18.620;2022-07-24T06:32:13;9.17;;;7.40;;
22677;SDS011;26259;50.214;18.620;2022-07-24T06:34:38;14.43;;;7.60;;
22677;SDS011;26259;50.214;18.620;2022-07-24T06:37:04;8.07;;;6.60;;
22677;SDS011;26259;50.214;18.620;2022-07-24T06:39:29;7.50;;;6.60;;
22677;SDS011;26259;50.214;18.620;2022-07-24T06:41:55;9.83;;;6.80;;
22677;SDS011;26259;50.214;18.620;2022-07-24T06:44:20;11.37;;;7.77;;
22677;SDS011;26259;50.214;18.620;2022-07-24T06:46:47;8.33;;;7.13;;
22677;SDS011;26259;50.214;18.620;2022-07-24T06:49:13;8.53;;;7.20;;
22677;SDS011;26259;50.214;18.620;2022-07-24T06:51:39;9.10;;;6.03;;
22677;SDS011;26259;50.214;18.620;2022-07-24T06:54:04;9.40;;;5.67;;
22677;SDS011;26259;50.214;18.620;2022-07-24T06:56:30;6.77;;;5.37;;
22677;SDS011;26259;50.214;18.620;2022-07-24T06:58:56;7.03;;;5.53;;
22677;SDS011;26259;50.214;18.620;2022-07-24T07:01:21;7.07;;;5.37;;
22677;SDS011;26259;50.214;18.620;2022-07-24T07:03:50;7.00;;;5.40;;
22677;SDS011;26259;50.214;18.620;2022-07-24T07:06:20;10.60;;;5.60;;
22677;SDS011;26259;50.214;18.620;2022-07-24T07:08:46;9.53;;;5.33;;
22677;SDS011;26259;50.214;18.620;2022-07-24T07:11:12;8.73;;;5.27;;
22677;SDS011;26259;50.214;18.620;2022-07-24T07:13:37;8.13;;;5.40;;
22677;SDS011;26259;50.214;18.620;2022-07-24T07:16:03;8.70;;;5.37;;
22677;SDS011;26259;50.214;18.620;2022-07-24T07:18:29;7.23;;;5.07;;
22677;SDS011;26259;50.214;18.620;2022-07-24T07:20:54;6.40;;;5.67;;
22677;SDS011;26259;50.214;18.620;2022-07-24T07:23:23;6.30;;;4.97;;
22677;SDS011;26259;50.214;18.620;2022-07-24T07:25:51;10.47;;;5.33;;
22677;SDS011;26259;50.214;18.620;2022-07-24T07:28:18;8.03;;;5.10;;
22677;SDS011;26259;50.214;18.620;2022-07-24T07:30:44;9.47;;;4.87;;
22677;SDS011;26259;50.214;18.620;2022-07-24T07:33:10;6.93;;;5.57;;
22677;SDS011;26259;50.214;18.620;2022-07-24T07:35:35;5.93;;;5.33;;
22677;SDS011;26259;50.214;18.620;2022-07-24T07:38:01;6.17;;;4.77;;
22677;SDS011;26259;50.214;18.620;2022-07-24T07:40:27;8.03;;;5.17;;
22677;SDS011;26259;50.214;18.620;2022-07-24T07:42:52;8.00;;;5.57;;
22677;SDS011;26259;50.214;18.620;2022-07-24T07:45:18;8.40;;;6.03;;
22677;SDS011;26259;50.214;18.620;2022-07-24T07:47:44;8.77;;;7.13;;
22677;SDS011;26259;50.214;18.620;2022-07-24T07:50:09;10.13;;;6.70;;
22677;SDS011;26259;50.214;18.620;2022-07-24T07:52:35;12.80;;;7.60;;
22677;SDS011;26259;50.214;18.620;2022-07-24T07:55:01;9.30;;;6.40;;
22677;SDS011;26259;50.214;18.620;2022-07-24T07:57:27;10.50;;;6.80;;
22677;SDS011;26259;50.214;18.620;2022-07-24T07:59:53;14.80;;;7.03;;
22677;SDS011;26259;50.214;18.620;2022-07-24T08:02:18;9.20;;;7.30;;
22677;SDS011;26259;50.214;18.620;2022-07-24T08:04:44;10.43;;;7.77;;
22677;SDS011;26259;50.214;18.620;2022-07-24T08:07:09;12.33;;;6.67;;
22677;SDS011;26259;50.214;18.620;2022-07-24T08:09:35;9.27;;;6.60;;
22677;SDS011;26259;50.214;18.620;2022-07-24T08:12:02;8.47;;;6.50;;
22677;SDS011;26259;50.214;18.620;2022-07-24T08:14:29;10.07;;;7.00;;
22677;SDS011;26259;50.214;18.620;2022-07-24T08:16:55;8.57;;;6.73;;
22677;SDS011;26259;50.214;18.620;2022-07-24T08:19:20;12.67;;;6.40;;
22677;SDS011;26259;50.214;18.620;2022-07-24T08:21:46;9.13;;;6.13;;
22677;SDS011;26259;50.214;18.620;2022-07-24T08:24:12;8.33;;;6.33;;
22677;SDS011;26259;50.214;18.620;2022-07-24T08:26:38;8.63;;;6.57;;
22677;SDS011;26259;50.214;18.620;2022-07-24T08:29:03;9.20;;;5.80;;
22677;SDS011;26259;50.214;18.620;2022-07-24T08:31:29;9.90;;;6.27;;
22677;SDS011;26259;50.214;18.620;2022-07-24T08:33:55;7.23;;;5.57;;
22677;SDS011;26259;50.214;18.620;2022-07-24T08:36:21;13.93;;;6.03;;
22677;SDS011;26259;50.214;18.620;2022-07-24T08:38:46;11.27;;;6.13;;
22677;SDS011;26259;50.214;18.620;2022-07-24T08:41:12;9.33;;;5.70;;
22677;SDS011;26259;50.214;18.620;2022-07-24T08:43:38;10.20;;;6.17;;
22677;SDS011;26259;50.214;18.620;2022-07-24T08:46:04;7.97;;;4.70;;
22677;SDS011;26259;50.214;18.620;2022-07-24T08:48:34;5.13;;;4.63;;
22677;SDS011;26259;50.214;18.620;2022-07-24T08:51:01;19.00;;;5.83;;
22677;SDS011;26259;50.214;18.620;2022-07-24T08:53:27;7.33;;;5.37;;
22677;SDS011;26259;50.214;18.620;2022-07-24T08:55:52;7.83;;;4.57;;
22677;SDS011;26259;50.214;18.620;2022-07-24T08:58:18;6.90;;;4.80;;
22677;SDS011;26259;50.214;18.620;2022-07-24T09:00:44;8.40;;;5.33;;
22677;SDS011;26259;50.214;18.620;2022-07-24T09:03:09;7.90;;;4.97;;
22677;SDS011;26259;50.214;18.620;2022-07-24T09:05:57;7.20;;;4.53;;
22677;SDS011;26259;50.214;18.620;2022-07-24T09:08:22;6.10;;;4.00;;
22677;SDS011;26259;50.214;18.620;2022-07-24T09:10:58;4.53;;;4.00;;
22677;SDS011;26259;50.214;18.620;2022-07-24T09:13:28;5.20;;;3.93;;
22677;SDS011;26259;50.214;18.620;2022-07-24T09:16:32;5.43;;;4.23;;
22677;SDS011;26259;50.214;18.620;2022-07-24T09:19:08;6.17;;;4.40;;
22677;SDS011;26259;50.214;18.620;2022-07-24T09:21:35;4.13;;;3.73;;
22677;SDS011;26259;50.214;18.620;2022-07-24T09:24:19;7.57;;;4.47;;
22677;SDS011;26259;50.214;18.620;2022-07-24T09:26:55;8.63;;;4.83;;
22677;SDS011;26259;50.214;18.620;2022-07-24T09:29:22;5.27;;;4.57;;
22677;SDS011;26259;50.214;18.620;2022-07-24T09:31:53;5.30;;;4.33;;
22677;SDS011;26259;50.214;18.620;2022-07-24T09:34:23;4.87;;;4.37;;
22677;SDS011;26259;50.214;18.620;2022-07-24T09:37:03;6.03;;;4.63;;
22677;SDS011;26259;50.214;18.620;2022-07-24T09:39:31;5.63;;;4.30;;
22677;SDS011;26259;50.214;18.620;2022-07-24T09:41:59;5.07;;;2.67;;
22677;SDS011;26259;50.214;18.620;2022-07-24T09:44:25;2.80;;;2.50;;
22677;SDS011;26259;50.214;18.620;2022-07-24T09:46:55;3.00;;;2.70;;
22677;SDS011;26259;50.214;18.620;2022-07-24T09:49:22;6.20;;;3.23;;
22677;SDS011;26259;50.214;18.620;2022-07-24T09:54:39;6.03;;;3.53;;
22677;SDS011;26259;50.214;18.620;2022-07-24T10:00:00;5.23;;;3.87;;
22677;SDS011;26259;50.214;18.620;2022-07-24T10:02:28;6.70;;;4.27;;
22677;SDS011;26259;50.214;18.620;2022-07-24T10:04:58;7.47;;;4.23;;
22677;SDS011;26259;50.214;18.620;2022-07-24T10:07:27;9.93;;;3.40;;
22677;SDS011;26259;50.214;18.620;2022-07-24T10:09:54;4.43;;;3.40;;
22677;SDS011;26259;50.214;18.620;2022-07-24T10:12:25;6.83;;;3.53;;
22677;SDS011;26259;50.214;18.620;2022-07-24T10:14:54;5.13;;;3.47;;
22677;SDS011;26259;50.214;18.620;2022-07-24T10:17:21;3.43;;;3.13;;
22677;SDS011;26259;50.214;18.620;2022-07-24T10:20:13;3.00;;;2.70;;
22677;SDS011;26259;50.214;18.620;2022-07-24T10:22:58;3.57;;;3.27;;
22677;SDS011;26259;50.214;18.620;2022-07-24T10:25:27;5.27;;;3.10;;
22677;SDS011;26259;50.214;18.620;2022-07-24T10:27:55;3.40;;;3.07;;
22677;SDS011;26259;50.214;18.620;2022-07-24T10:30:26;2.73;;;2.47;;
22677;SDS011;26259;50.214;18.620;2022-07-24T10:32:53;3.60;;;2.50;;
22677;SDS011;26259;50.214;18.620;2022-07-24T10:35:22;4.93;;;3.97;;
22677;SDS011;26259;50.214;18.620;2022-07-24T10:37:53;4.60;;;2.43;;
22677;SDS011;26259;50.214;18.620;2022-07-24T10:43:19;4.37;;;2.40;;
22677;SDS011;26259;50.214;18.620;2022-07-24T10:48:35;5.17;;;2.30;;
22677;SDS011;26259;50.214;18.620;2022-07-24T10:51:05;5.47;;;2.20;;
22677;SDS011;26259;50.214;18.620;2022-07-24T10:58:55;4.53;;;2.87;;
22677;SDS011;26259;50.214;18.620;2022-07-24T11:01:43;6.50;;;2.63;;
22677;SDS011;26259;50.214;18.620;2022-07-24T11:09:20;3.03;;;2.13;;
22677;SDS011;26259;50.214;18.620;2022-07-24T11:14:23;2.90;;;2.10;;
22677;SDS011;26259;50.214;18.620;2022-07-24T11:16:51;5.93;;;2.50;;
22677;SDS011;26259;50.214;18.620;2022-07-24T11:21:43;4.33;;;2.20;;
22677;SDS011;26259;50.214;18.620;2022-07-24T11:26:45;4.90;;;2.53;;
22677;SDS011;26259;50.214;18.620;2022-07-24T11:31:56;4.30;;;1.95;;
22677;SDS011;26259;50.214;18.620;2022-07-24T11:34:24;5.27;;;2.20;;
22677;SDS011;26259;50.214;18.620;2022-07-24T11:36:51;2.83;;;2.03;;
22677;SDS011;26259;50.214;18.620;2022-07-24T11:39:18;5.07;;;1.97;;
22677;SDS011;26259;50.214;18.620;2022-07-24T11:41:46;2.70;;;1.70;;
22677;SDS011;26259;50.214;18.620;2022-07-24T11:44:26;2.73;;;1.80;;
22677;SDS011;26259;50.214;18.620;2022-07-24T11:46:54;4.33;;;1.70;;
22677;SDS011;26259;50.214;18.620;2022-07-24T11:49:22;5.93;;;1.80;;
22677;SDS011;26259;50.214;18.620;2022-07-24T11:51:49;1.90;;;1.50;;
22677;SDS011;26259;50.214;18.620;2022-07-24T11:54:24;4.07;;;1.70;;
22677;SDS011;26259;50.214;18.620;2022-07-24T11:56:52;2.53;;;1.60;;
22677;SDS011;26259;50.214;18.620;2022-07-24T12:01:51;4.17;;;1.60;;
22677;SDS011;26259;50.214;18.620;2022-07-24T12:04:21;3.67;;;1.80;;
22677;SDS011;26259;50.214;18.620;2022-07-24T12:06:47;3.33;;;1.80;;
22677;SDS011;26259;50.214;18.620;2022-07-24T12:09:13;2.13;;;1.60;;
22677;SDS011;26259;50.214;18.620;2022-07-24T12:11:38;2.10;;;1.37;;
22677;SDS011;26259;50.214;18.620;2022-07-24T12:14:05;3.43;;;1.70;;
22677;SDS011;26259;50.214;18.620;2022-07-24T12:16:38;5.30;;;1.50;;
22677;SDS011;26259;50.214;18.620;2022-07-24T12:19:16;2.37;;;1.60;;
22677;SDS011;26259;50.214;18.620;2022-07-24T12:21:44;2.70;;;1.57;;
22677;SDS011;26259;50.214;18.620;2022-07-24T12:24:10;2.17;;;1.67;;
22677;SDS011;26259;50.214;18.620;2022-07-24T12:26:54;2.67;;;1.70;;
22677;SDS011;26259;50.214;18.620;2022-07-24T12:29:22;3.37;;;1.30;;
22677;SDS011;26259;50.214;18.620;2022-07-24T12:31:48;1.67;;;1.20;;
22677;SDS011;26259;50.214;18.620;2022-07-24T12:34:15;1.73;;;1.35;;
22677;SDS011;26259;50.214;18.620;2022-07-24T12:36:41;5.43;;;1.60;;
22677;SDS011;26259;50.214;18.620;2022-07-24T12:39:07;2.53;;;1.80;;
22677;SDS011;26259;50.214;18.620;2022-07-24T12:41:41;4.00;;;1.30;;
22677;SDS011;26259;50.214;18.620;2022-07-24T12:44:12;2.13;;;1.30;;
22677;SDS011;26259;50.214;18.620;2022-07-24T12:46:39;2.53;;;1.53;;
22677;SDS011;26259;50.214;18.620;2022-07-24T12:54:28;3.47;;;1.40;;
22677;SDS011;26259;50.214;18.620;2022-07-24T12:57:09;3.85;;;1.92;;
22677;SDS011;26259;50.214;18.620;2022-07-24T12:59:37;1.93;;;1.20;;
22677;SDS011;26259;50.214;18.620;2022-07-24T13:02:04;1.35;;;1.00;;
22677;SDS011;26259;50.214;18.620;2022-07-24T13:04:32;1.80;;;1.33;;
22677;SDS011;26259;50.214;18.620;2022-07-24T13:07:01;1.73;;;1.30;;
22677;SDS011;26259;50.214;18.620;2022-07-24T13:09:27;2.42;;;1.17;;
22677;SDS011;26259;50.214;18.620;2022-07-24T13:11:55;6.80;;;1.13;;
22677;SDS011;26259;50.214;18.620;2022-07-24T13:14:22;3.10;;;1.20;;
22677;SDS011;26259;50.214;18.620;2022-07-24T13:16:50;1.85;;;1.40;;
22677;SDS011;26259;50.214;18.620;2022-07-24T13:19:18;3.20;;;1.27;;
22677;SDS011;26259;50.214;18.620;2022-07-24T13:21:45;3.30;;;1.13;;
22677;SDS011;26259;50.214;18.620;2022-07-24T13:24:12;1.53;;;1.10;;
22677;SDS011;26259;50.214;18.620;2022-07-24T13:26:39;2.97;;;1.33;;
22677;SDS011;26259;50.214;18.620;2022-07-24T13:29:06;2.63;;;0.90;;
22677;SDS011;26259;50.214;18.620;2022-07-24T13:31:32;2.47;;;1.10;;
22677;SDS011;26259;50.214;18.620;2022-07-24T13:33:58;3.33;;;0.98;;
22677;SDS011;26259;50.214;18.620;2022-07-24T13:36:24;4.93;;;1.30;;
22677;SDS011;26259;50.214;18.620;2022-07-24T13:38:50;1.50;;;1.00;;
22677;SDS011;26259;50.214;18.620;2022-07-24T13:41:16;2.03;;;0.93;;
22677;SDS011;26259;50.214;18.620;2022-07-24T13:43:43;3.60;;;1.00;;
22677;SDS011;26259;50.214;18.620;2022-07-24T13:46:10;1.43;;;1.00;;
22677;SDS011;26259;50.214;18.620;2022-07-24T13:48:35;1.47;;;0.97;;
22677;SDS011;26259;50.214;18.620;2022-07-24T13:51:01;2.03;;;1.15;;
22677;SDS011;26259;50.214;18.620;2022-07-24T13:53:27;1.57;;;0.93;;
22677;SDS011;26259;50.214;18.620;2022-07-24T13:55:52;4.20;;;1.30;;
22677;SDS011;26259;50.214;18.620;2022-07-24T13:58:18;1.10;;;0.90;;
22677;SDS011;26259;50.214;18.620;2022-07-24T14:00:43;5.20;;;1.10;;
22677;SDS011;26259;50.214;18.620;2022-07-24T14:03:09;1.37;;;1.27;;
22677;SDS011;26259;50.214;18.620;2022-07-24T14:05:35;2.47;;;1.00;;
22677;SDS011;26259;50.214;18.620;2022-07-24T14:08:00;1.30;;;1.20;;
22677;SDS011;26259;50.214;18.620;2022-07-24T14:10:26;2.27;;;0.93;;
22677;SDS011;26259;50.214;18.620;2022-07-24T14:12:52;1.57;;;1.00;;
22677;SDS011;26259;50.214;18.620;2022-07-24T14:15:17;1.65;;;0.88;;
22677;SDS011;26259;50.214;18.620;2022-07-24T14:17:43;2.63;;;1.10;;
22677;SDS011;26259;50.214;18.620;2022-07-24T14:20:10;3.40;;;1.05;;
22677;SDS011;26259;50.214;18.620;2022-07-24T14:22:37;4.25;;;1.23;;
22677;SDS011;26259;50.214;18.620;2022-07-24T14:25:04;3.80;;;1.20;;
22677;SDS011;26259;50.214;18.620;2022-07-24T14:27:31;6.60;;;1.10;;
22677;SDS011;26259;50.214;18.620;2022-07-24T14:29:57;3.38;;;1.25;;
22677;SDS011;26259;50.214;18.620;2022-07-24T14:32:23;2.77;;;1.10;;
22677;SDS011;26259;50.214;18.620;2022-07-24T14:34:49;2.63;;;1.00;;
22677;SDS011;26259;50.214;18.620;2022-07-24T14:37:15;1.58;;;1.10;;
22677;SDS011;26259;50.214;18.620;2022-07-24T14:39:41;2.13;;;1.20;;
22677;SDS011;26259;50.214;18.620;2022-07-24T14:42:07;5.07;;;1.35;;
22677;SDS011;26259;50.214;18.620;2022-07-24T14:44:33;9.23;;;1.90;;
22677;SDS011;26259;50.214;18.620;2022-07-24T14:46:58;1.52;;;1.10;;
22677;SDS011;26259;50.214;18.620;2022-07-24T14:49:25;0.90;;;0.90;;
22677;SDS011;26259;50.214;18.620;2022-07-24T14:51:54;2.85;;;1.50;;
22677;SDS011;26259;50.214;18.620;2022-07-24T14:54:19;3.47;;;1.35;;
22677;SDS011;26259;50.214;18.620;2022-07-24T14:56:45;1.77;;;1.17;;
22677;SDS011;26259;50.214;18.620;2022-07-24T14:59:11;3.13;;;1.00;;
22677;SDS011;26259;50.214;18.620;2022-07-24T15:01:38;5.83;;;1.13;;